Time;durP1;ratioP1;P1;durP2;ratioP2;P2;SDS_P1;SDS_P2;PMS_P1;PMS_P2;Temp;Humidity;BMP_temperature;BMP_pressure;BME280_temperature;BME280_humidity;BME280_pressure;Samples;Min_cycle;Max_cycle;Signal;HPM_P1;HPM_P2
2023/04/28 00:00:03;;;;;;;11.13;8.45;;;4.70;99.90;;;;;;5007478;28;21001;-56
2023/04/28 00:02:29;;;;;;;12.30;9.00;;;4.80;99.90;;;;;;5007328;28;20014;-58
2023/04/28 00:04:54;;;;;;;12.98;8.77;;;4.70;99.90;;;;;;5007422;28;20576;-57
2023/04/28 00:07:20;;;;;;;14.27;8.48;;;4.80;99.90;;;;;;4992132;28;20149;-54
2023/04/28 00:09:45;;;;;;;10.32;7.88;;;4.70;99.90;;;;;;5007834;28;20022;-57
2023/04/28 00:12:11;;;;;;;9.55;7.55;;;4.70;99.90;;;;;;5007639;28;20022;-58
2023/04/28 00:14:37;;;;;;;9.38;7.65;;;4.70;99.90;;;;;;4996624;28;20045;-54
2023/04/28 00:17:02;;;;;;;12.52;8.77;;;4.70;99.90;;;;;;5007432;28;20038;-54
2023/04/28 00:19:28;;;;;;;13.02;8.32;;;4.70;99.90;;;;;;5007256;28;20040;-56
2023/04/28 00:21:53;;;;;;;10.05;7.45;;;4.70;99.90;;;;;;5007385;28;20056;-56
2023/04/28 00:24:19;;;;;;;10.45;7.47;;;4.70;99.90;;;;;;5007075;28;20030;-57
2023/04/28 00:26:44;;;;;;;9.23;7.72;;;4.70;99.90;;;;;;5003884;28;20061;-61
2023/04/28 00:29:10;;;;;;;9.07;7.95;;;4.70;99.90;;;;;;5006358;28;20052;-55
2023/04/28 00:31:36;;;;;;;12.85;8.15;;;4.70;99.90;;;;;;5007525;28;20037;-55
2023/04/28 00:34:01;;;;;;;12.05;8.25;;;4.70;99.90;;;;;;5006684;28;20484;-55
2023/04/28 00:36:30;;;;;;;9.18;7.95;;;4.70;99.90;;;;;;5037521;22;20503;-51
2023/04/28 00:38:56;;;;;;;11.77;7.90;;;4.60;99.90;;;;;;5024126;28;20956;-51
2023/04/28 00:41:22;;;;;;;9.55;7.18;;;4.60;99.90;;;;;;5025043;28;20045;-50
2023/04/28 00:43:49;;;;;;;9.82;7.20;;;4.60;99.90;;;;;;5025666;28;20040;-50
2023/04/28 00:46:29;;;;;;;14.38;7.72;;;4.60;99.90;;;;;;5021863;28;20032;-50
2023/04/28 00:48:56;;;;;;;10.43;7.63;;;4.60;99.90;;;;;;5013703;28;20468;-53
2023/04/28 00:51:22;;;;;;;9.93;7.88;;;4.50;99.90;;;;;;5016256;28;20029;-50
2023/04/28 00:53:47;;;;;;;10.45;8.23;;;4.50;99.90;;;;;;5014357;28;20610;-50
2023/04/28 00:56:14;;;;;;;11.98;8.35;;;4.50;99.90;;;;;;5015363;28;20029;-52
2023/04/28 00:58:40;;;;;;;9.90;8.05;;;4.50;99.90;;;;;;5013897;28;20022;-49
2023/04/28 01:01:08;;;;;;;12.23;8.65;;;4.50;99.90;;;;;;5010975;28;20084;-49
2023/04/28 01:03:36;;;;;;;10.00;8.25;;;4.40;99.90;;;;;;5010378;28;20029;-49
2023/04/28 01:06:04;;;;;;;9.63;7.57;;;4.40;99.90;;;;;;5014252;28;20454;-49
2023/04/28 01:08:31;;;;;;;11.82;8.30;;;4.40;99.90;;;;;;5015198;28;20120;-50
2023/04/28 01:10:57;;;;;;;12.38;8.02;;;4.30;99.90;;;;;;4996820;28;20071;-47
2023/04/28 01:13:23;;;;;;;11.13;8.75;;;4.30;99.90;;;;;;5014610;28;20022;-48
2023/04/28 01:15:49;;;;;;;12.30;8.50;;;4.30;99.90;;;;;;5015467;28;20443;-50
2023/04/28 01:18:15;;;;;;;12.00;9.57;;;4.30;99.90;;;;;;5015242;28;20025;-53
2023/04/28 01:20:41;;;;;;;13.13;8.88;;;4.20;99.90;;;;;;5015140;28;20037;-49
2023/04/28 01:23:14;;;;;;;12.00;8.15;;;4.20;99.90;;;;;;5015297;28;20025;-47
2023/04/28 01:25:41;;;;;;;11.00;8.00;;;4.10;99.90;;;;;;5015583;28;20519;-49
2023/04/28 01:28:09;;;;;;;12.27;9.23;;;4.10;99.90;;;;;;5015173;28;20036;-51
2023/04/28 01:30:35;;;;;;;11.63;8.85;;;4.10;99.90;;;;;;5014845;28;20038;-48
2023/04/28 01:33:01;;;;;;;10.85;8.35;;;4.10;99.90;;;;;;5015097;28;20032;-47
2023/04/28 01:35:27;;;;;;;12.95;9.93;;;4.00;99.90;;;;;;4997048;28;20057;-50
2023/04/28 01:37:53;;;;;;;11.63;8.10;;;4.00;99.90;;;;;;5014335;28;20728;-51
2023/04/28 01:40:18;;;;;;;12.70;9.07;;;4.00;99.90;;;;;;5015159;28;20082;-50
2023/04/28 01:42:44;;;;;;;13.50;9.43;;;4.00;99.90;;;;;;5015366;28;20033;-47
2023/04/28 01:45:10;;;;;;;12.48;9.27;;;3.90;99.90;;;;;;5015057;28;20033;-51
2023/04/28 01:47:36;;;;;;;13.65;8.98;;;3.90;99.90;;;;;;5014246;28;20195;-51
2023/04/28 01:50:02;;;;;;;13.73;8.80;;;3.80;99.90;;;;;;5015272;28;20578;-48
2023/04/28 01:52:27;;;;;;;12.27;9.63;;;3.80;99.90;;;;;;5013967;28;20038;-48
2023/04/28 01:54:54;;;;;;;14.40;9.18;;;3.80;99.90;;;;;;5013507;28;20033;-49
2023/04/28 01:57:20;;;;;;;12.40;8.27;;;3.70;99.90;;;;;;5014128;28;20582;-48
2023/04/28 01:59:45;;;;;;;13.77;8.95;;;3.70;99.90;;;;;;5014576;28;20042;-50
2023/04/28 02:02:11;;;;;;;11.02;8.43;;;3.60;99.90;;;;;;5013175;28;20038;-52
2023/04/28 02:04:40;;;;;;;10.40;7.90;;;3.60;99.90;;;;;;5016570;28;20038;-50
2023/04/28 02:07:06;;;;;;;10.63;8.35;;;3.60;99.90;;;;;;5018020;28;20021;-51
2023/04/28 02:09:32;;;;;;;10.52;8.57;;;3.50;99.90;;;;;;5020423;28;20400;-49
2023/04/28 02:11:59;;;;;;;11.25;8.65;;;3.50;99.90;;;;;;5019752;28;20026;-51
2023/04/28 02:14:24;;;;;;;11.57;8.10;;;3.40;99.90;;;;;;5020425;28;20029;-47
2023/04/28 02:16:50;;;;;;;16.33;9.05;;;3.40;99.90;;;;;;5020358;28;20025;-48
2023/04/28 02:19:16;;;;;;;11.13;8.65;;;3.40;99.90;;;;;;5021250;28;20034;-50
2023/04/28 02:21:42;;;;;;;12.23;8.40;;;3.40;99.90;;;;;;5020880;28;20021;-47
2023/04/28 02:24:08;;;;;;;14.82;8.93;;;3.30;99.90;;;;;;5019431;28;20111;-48
2023/04/28 02:26:34;;;;;;;11.18;8.65;;;3.30;99.90;;;;;;5018634;28;20619;-52
2023/04/28 02:29:00;;;;;;;11.85;8.90;;;3.20;99.90;;;;;;5019507;28;20032;-50
2023/04/28 02:31:26;;;;;;;11.70;8.88;;;3.30;99.90;;;;;;5018609;28;20026;-50
2023/04/28 02:33:51;;;;;;;10.90;8.27;;;3.20;99.90;;;;;;5019855;28;20026;-50
2023/04/28 02:36:17;;;;;;;12.20;8.50;;;3.20;99.90;;;;;;5018604;28;20599;-49
2023/04/28 02:38:43;;;;;;;13.07;8.57;;;3.20;99.90;;;;;;5020000;28;20534;-49
2023/04/28 02:41:10;;;;;;;12.27;9.00;;;3.20;99.90;;;;;;5021059;28;20392;-47
2023/04/28 02:43:36;;;;;;;14.38;9.48;;;3.10;99.90;;;;;;5020161;28;20534;-47
2023/04/28 02:46:05;;;;;;;11.40;9.00;;;3.10;99.90;;;;;;5020221;28;20037;-51
2023/04/28 02:48:32;;;;;;;13.45;8.82;;;3.10;99.90;;;;;;5019464;28;20072;-47
2023/04/28 02:50:57;;;;;;;13.45;9.57;;;3.10;99.90;;;;;;5019809;28;20021;-47
2023/04/28 02:53:23;;;;;;;14.25;9.63;;;3.00;99.90;;;;;;5019800;28;20483;-47
2023/04/28 02:55:49;;;;;;;11.73;9.18;;;3.10;99.90;;;;;;5019778;28;20033;-50
2023/04/28 02:58:16;;;;;;;16.10;9.65;;;3.10;99.90;;;;;;5018099;28;20116;-52
2023/04/28 03:00:42;;;;;;;11.75;9.80;;;3.10;99.90;;;;;;5019032;28;20538;-47
2023/04/28 03:03:08;;;;;;;13.90;9.27;;;3.10;99.90;;;;;;5019471;28;20046;-49
2023/04/28 03:05:33;;;;;;;13.98;9.45;;;3.20;99.90;;;;;;5018091;28;20029;-49
2023/04/28 03:07:59;;;;;;;12.80;8.75;;;3.10;99.90;;;;;;5017955;28;20038;-50
2023/04/28 03:10:25;;;;;;;20.65;9.88;;;3.20;99.90;;;;;;5001883;28;20040;-48
2023/04/28 03:12:50;;;;;;;14.32;9.88;;;3.10;99.90;;;;;;5018732;28;20635;-47
2023/04/28 03:15:16;;;;;;;14.65;9.40;;;3.10;99.90;;;;;;5019319;28;20050;-48
2023/04/28 03:17:42;;;;;;;15.75;9.77;;;3.10;99.90;;;;;;5017652;28;20089;-50
2023/04/28 03:20:08;;;;;;;15.40;10.10;;;3.10;99.90;;;;;;5018866;28;20140;-48
2023/04/28 03:22:34;;;;;;;14.65;10.25;;;3.10;99.90;;;;;;5019507;28;20407;-50
2023/04/28 03:25:00;;;;;;;13.45;9.82;;;3.10;99.90;;;;;;5002899;28;20026;-48
2023/04/28 03:27:27;;;;;;;13.27;10.15;;;3.20;99.90;;;;;;5001344;28;20076;-48
2023/04/28 03:29:52;;;;;;;13.23;9.77;;;3.10;99.90;;;;;;5017932;28;20053;-47
2023/04/28 03:32:18;;;;;;;14.48;9.88;;;3.10;99.90;;;;;;5018111;28;20491;-50
2023/04/28 03:34:43;;;;;;;14.73;10.23;;;3.10;99.90;;;;;;5018452;28;20445;-51
2023/04/28 03:37:09;;;;;;;13.95;10.25;;;3.10;99.90;;;;;;5018507;28;20061;-51
2023/04/28 03:39:35;;;;;;;14.30;10.80;;;3.10;99.90;;;;;;5018167;28;20033;-49
2023/04/28 03:42:01;;;;;;;15.60;10.48;;;3.10;99.90;;;;;;5018122;28;20025;-47
2023/04/28 03:44:26;;;;;;;15.05;9.93;;;3.10;99.90;;;;;;5019032;28;20038;-48
2023/04/28 03:46:52;;;;;;;16.45;10.77;;;3.10;99.90;;;;;;5017166;28;20725;-49
2023/04/28 03:49:18;;;;;;;15.30;10.73;;;3.10;99.90;;;;;;5019283;28;20030;-50
2023/04/28 03:51:43;;;;;;;16.95;10.63;;;3.10;99.90;;;;;;5018628;28;20056;-47
2023/04/28 03:54:09;;;;;;;13.77;9.43;;;3.10;99.90;;;;;;5018504;28;20113;-48
2023/04/28 03:56:34;;;;;;;11.75;9.10;;;3.10;99.90;;;;;;5017930;28;20029;-49
2023/04/28 03:59:00;;;;;;;14.88;10.02;;;3.00;99.90;;;;;;5017759;28;20034;-49
2023/04/28 04:01:25;;;;;;;13.25;9.10;;;3.00;99.90;;;;;;5015908;28;20041;-49
2023/04/28 04:03:51;;;;;;;17.00;10.20;;;3.10;99.90;;;;;;5018293;28;20042;-47
2023/04/28 04:06:17;;;;;;;13.50;9.52;;;3.00;99.90;;;;;;4999761;28;20065;-51
2023/04/28 04:08:42;;;;;;;16.10;9.85;;;3.00;99.90;;;;;;5017614;28;20029;-51
2023/04/28 04:11:08;;;;;;;15.45;9.88;;;3.10;99.90;;;;;;5006488;28;20476;-50
2023/04/28 04:13:34;;;;;;;15.63;10.02;;;3.10;99.90;;;;;;5017664;28;20106;-47
2023/04/28 04:15:59;;;;;;;11.48;8.75;;;3.00;99.90;;;;;;5018272;28;20476;-51
2023/04/28 04:18:26;;;;;;;14.13;9.88;;;3.10;99.90;;;;;;5016601;28;20060;-50
2023/04/28 04:20:54;;;;;;;13.57;9.32;;;3.00;99.90;;;;;;5016941;28;20025;-49
2023/04/28 04:23:20;;;;;;;14.13;8.90;;;3.00;99.90;;;;;;5016901;28;20451;-48
2023/04/28 04:25:46;;;;;;;14.07;9.45;;;3.00;99.90;;;;;;5016815;28;20030;-49
2023/04/28 04:28:11;;;;;;;11.35;8.82;;;3.10;99.90;;;;;;5016310;28;20561;-48
2023/04/28 04:30:39;;;;;;;15.57;9.38;;;3.00;99.90;;;;;;5016252;28;20431;-50
2023/04/28 04:33:05;;;;;;;14.85;9.00;;;3.10;99.90;;;;;;5017942;28;20038;-50
2023/04/28 04:35:31;;;;;;;12.20;8.90;;;3.10;99.90;;;;;;4999656;28;20037;-50
2023/04/28 04:37:57;;;;;;;11.85;8.10;;;3.10;99.90;;;;;;5017418;28;20033;-51
2023/04/28 04:40:22;;;;;;;10.07;7.97;;;3.10;99.90;;;;;;5017751;28;20037;-48
2023/04/28 04:42:48;;;;;;;13.38;8.73;;;3.10;99.90;;;;;;5018152;28;20044;-50
2023/04/28 04:45:13;;;;;;;17.67;9.00;;;3.20;99.90;;;;;;5017454;28;20061;-50
2023/04/28 04:47:40;;;;;;;13.02;8.18;;;3.20;99.90;;;;;;5016651;28;20432;-47
2023/04/28 04:50:06;;;;;;;12.52;8.77;;;3.20;99.90;;;;;;5016723;28;20041;-50
2023/04/28 04:52:32;;;;;;;12.65;9.00;;;3.20;99.90;;;;;;5016930;28;20103;-49
2023/04/28 04:54:58;;;;;;;12.95;9.55;;;3.20;99.90;;;;;;5017494;28;20029;-52
2023/04/28 04:57:23;;;;;;;13.82;9.20;;;3.30;99.90;;;;;;5016586;28;20096;-47
2023/04/28 04:59:49;;;;;;;11.15;9.13;;;3.30;99.90;;;;;;5016140;28;20101;-49
2023/04/28 05:02:14;;;;;;;10.98;8.38;;;3.30;99.90;;;;;;4998681;28;20045;-50
2023/04/28 05:04:40;;;;;;;14.80;8.68;;;3.30;99.90;;;;;;5016968;28;20048;-48
2023/04/28 05:07:06;;;;;;;10.63;8.45;;;3.30;99.90;;;;;;4999734;28;20030;-52
2023/04/28 05:09:32;;;;;;;11.80;9.07;;;3.40;99.90;;;;;;5017181;28;20034;-48
2023/04/28 05:11:57;;;;;;;12.68;8.73;;;3.40;99.90;;;;;;5015940;28;20025;-48
2023/04/28 05:14:23;;;;;;;10.68;8.00;;;3.40;99.90;;;;;;5015923;28;20025;-50
2023/04/28 05:16:48;;;;;;;12.25;7.85;;;3.40;99.90;;;;;;5015845;28;20036;-52
2023/04/28 05:19:14;;;;;;;12.65;8.68;;;3.50;99.90;;;;;;5016645;28;20033;-50
2023/04/28 05:21:40;;;;;;;10.98;8.00;;;3.50;99.90;;;;;;5000438;28;20064;-51
2023/04/28 05:24:06;;;;;;;14.35;8.38;;;3.60;99.90;;;;;;5016189;28;20038;-49
2023/04/28 05:26:31;;;;;;;12.80;8.18;;;3.60;99.90;;;;;;5015327;28;20025;-49
2023/04/28 05:28:57;;;;;;;12.55;7.40;;;3.70;99.90;;;;;;5016007;28;20054;-48
2023/04/28 05:31:22;;;;;;;11.75;7.82;;;3.70;99.90;;;;;;5015669;28;20462;-51
2023/04/28 05:33:48;;;;;;;13.15;6.97;;;3.80;99.90;;;;;;5016981;28;20038;-47
2023/04/28 05:36:15;;;;;;;9.43;6.95;;;3.80;99.90;;;;;;5016236;28;20036;-49
2023/04/28 05:38:42;;;;;;;12.25;7.43;;;3.90;99.90;;;;;;5016207;28;20119;-51
2023/04/28 05:41:07;;;;;;;8.88;6.95;;;4.00;99.90;;;;;;5017802;28;20047;-50
2023/04/28 05:43:33;;;;;;;8.40;6.88;;;4.10;99.90;;;;;;5020738;28;20041;-51
2023/04/28 05:45:59;;;;;;;12.45;6.57;;;4.10;99.90;;;;;;5021266;28;20052;-49
2023/04/28 05:48:25;;;;;;;9.30;6.75;;;4.20;99.90;;;;;;5019783;28;20032;-48
2023/04/28 05:50:50;;;;;;;10.55;7.05;;;4.30;99.90;;;;;;5004128;28;20112;-52
2023/04/28 05:53:16;;;;;;;8.18;6.13;;;4.30;99.90;;;;;;5020998;28;20026;-51
2023/04/28 05:55:41;;;;;;;6.53;5.22;;;4.40;99.90;;;;;;5017128;28;20034;-55
2023/04/28 05:58:07;;;;;;;6.63;5.40;;;4.50;99.90;;;;;;5019751;28;20100;-51
2023/04/28 06:00:33;;;;;;;8.77;6.28;;;4.60;99.90;;;;;;5018835;28;20088;-49
2023/04/28 06:02:59;;;;;;;9.80;7.13;;;4.60;99.90;;;;;;5020058;28;20026;-51
2023/04/28 06:05:25;;;;;;;9.43;5.85;;;4.80;99.90;;;;;;5020004;28;20388;-51
2023/04/28 06:07:50;;;;;;;9.52;6.28;;;4.80;99.90;;;;;;5020059;28;20116;-48
2023/04/28 06:10:16;;;;;;;6.10;4.88;;;5.00;99.90;;;;;;5020082;28;20029;-50
2023/04/28 06:12:41;;;;;;;7.53;5.15;;;5.00;99.90;;;;;;5019449;28;20447;-50
2023/04/28 06:15:07;;;;;;;6.32;5.03;;;5.20;99.90;;;;;;5020422;28;20030;-51
2023/04/28 06:17:33;;;;;;;7.45;5.50;;;5.30;99.90;;;;;;5019759;28;20049;-49
2023/04/28 06:19:58;;;;;;;8.00;5.13;;;5.40;99.90;;;;;;5001227;28;20028;-49
2023/04/28 06:22:25;;;;;;;8.77;4.93;;;5.50;99.90;;;;;;5018857;28;20438;-52
2023/04/28 06:24:51;;;;;;;6.45;4.60;;;5.60;99.90;;;;;;5020243;28;20113;-52
2023/04/28 06:27:16;;;;;;;7.55;4.80;;;5.80;99.90;;;;;;5017300;28;20049;-52
2023/04/28 06:29:42;;;;;;;4.82;3.85;;;6.00;99.90;;;;;;5019235;28;20522;-48
2023/04/28 06:32:07;;;;;;;6.43;4.55;;;6.10;99.90;;;;;;5019377;28;20087;-53
2023/04/28 06:34:34;;;;;;;6.05;4.20;;;6.40;99.90;;;;;;5015758;28;20021;-49
2023/04/28 06:37:00;;;;;;;5.75;4.13;;;6.60;99.90;;;;;;5029557;23;20042;-49
2023/04/28 06:39:25;;;;;;;7.72;4.25;;;6.80;99.90;;;;;;5011935;28;20095;-48
2023/04/28 06:41:51;;;;;;;3.90;3.28;;;6.90;99.90;;;;;;5030127;28;20333;-47
2023/04/28 06:44:17;;;;;;;7.43;3.50;;;7.20;99.90;;;;;;5028797;28;20103;-51
2023/04/28 06:46:42;;;;;;;7.22;3.10;;;7.40;99.90;;;;;;5014676;28;20021;-50
2023/04/28 06:49:11;;;;;;;5.10;2.90;;;7.70;99.90;;;;;;5029905;28;20119;-51
2023/04/28 06:51:36;;;;;;;4.95;2.72;;;7.90;99.90;;;;;;5029591;28;20049;-50
2023/04/28 06:54:02;;;;;;;3.35;2.40;;;8.20;99.90;;;;;;5029989;28;20049;-50
2023/04/28 06:56:28;;;;;;;2.55;2.35;;;8.40;99.90;;;;;;5029139;28;20111;-46
2023/04/28 06:58:55;;;;;;;5.13;2.88;;;8.60;99.90;;;;;;5029914;28;20033;-49
2023/04/28 07:01:21;;;;;;;2.83;2.28;;;8.80;99.90;;;;;;5029819;28;20623;-47
2023/04/28 07:03:47;;;;;;;3.65;2.42;;;9.00;99.90;;;;;;5029582;28;20044;-48
2023/04/28 07:06:12;;;;;;;7.80;2.50;;;9.10;99.90;;;;;;5029726;28;20060;-50
2023/04/28 07:08:38;;;;;;;4.80;2.40;;;9.20;99.90;;;;;;5028912;28;20025;-49
2023/04/28 07:11:05;;;;;;;4.70;2.53;;;9.40;99.90;;;;;;5028275;28;20029;-48
2023/04/28 07:13:31;;;;;;;2.90;1.80;;;9.50;99.90;;;;;;5028400;28;20029;-48
2023/04/28 07:15:56;;;;;;;3.53;2.50;;;9.60;99.90;;;;;;5011753;28;20021;-47
2023/04/28 07:18:22;;;;;;;4.13;2.75;;;9.70;99.90;;;;;;5028907;28;20532;-51
2023/04/28 07:20:47;;;;;;;3.28;2.38;;;9.70;99.90;;;;;;5029650;28;20096;-48
2023/04/28 07:23:13;;;;;;;3.63;2.03;;;9.80;99.90;;;;;;5029038;28;20040;-49
2023/04/28 07:25:40;;;;;;;2.70;2.30;;;9.90;99.90;;;;;;5028871;28;20033;-48
2023/04/28 07:28:06;;;;;;;2.45;1.67;;;10.00;99.90;;;;;;5010329;28;20482;-49
2023/04/28 07:30:32;;;;;;;4.80;2.30;;;10.30;99.90;;;;;;5028749;28;20112;-48
2023/04/28 07:32:58;;;;;;;5.55;2.25;;;10.40;99.90;;;;;;5028910;28;20021;-49
2023/04/28 07:35:24;;;;;;;5.40;1.98;;;10.50;99.90;;;;;;5029326;28;20438;-50
2023/04/28 07:37:50;;;;;;;7.35;2.72;;;10.70;99.90;;;;;;5028648;28;20056;-51
2023/04/28 07:40:16;;;;;;;3.33;2.30;;;10.90;99.90;;;;;;5028420;28;20486;-50
2023/04/28 07:42:41;;;;;;;4.90;2.33;;;10.90;99.90;;;;;;5011315;28;20041;-51
2023/04/28 07:45:08;;;;;;;3.83;2.28;;;11.10;99.90;;;;;;5010694;28;20036;-52
2023/04/28 07:47:33;;;;;;;6.07;2.92;;;11.10;98.40;;;;;;5028524;28;20037;-49
2023/04/28 07:50:03;;;;;;;3.97;2.40;;;11.20;99.50;;;;;;5028843;28;20518;-48
2023/04/28 07:52:29;;;;;;;3.20;2.13;;;11.30;99.30;;;;;;5028381;28;20139;-49
2023/04/28 07:54:55;;;;;;;4.30;2.30;;;11.50;99.90;;;;;;5028559;28;20494;-48
2023/04/28 07:57:20;;;;;;;4.72;2.58;;;11.80;98.10;;;;;;5028086;28;20029;-47
2023/04/28 07:59:46;;;;;;;4.57;2.75;;;11.90;97.40;;;;;;5028776;28;20059;-50
2023/04/28 08:02:13;;;;;;;4.03;2.10;;;12.10;97.30;;;;;;5027825;28;20038;-48
2023/04/28 08:04:38;;;;;;;3.83;1.80;;;12.20;96.80;;;;;;5027492;28;20026;-48
2023/04/28 08:07:04;;;;;;;2.67;1.92;;;12.30;96.90;;;;;;5027294;28;20087;-48
2023/04/28 08:09:29;;;;;;;3.47;2.13;;;12.50;97.00;;;;;;5027184;28;20429;-49
2023/04/28 08:11:55;;;;;;;2.88;2.13;;;12.60;95.30;;;;;;5028617;28;20121;-50
2023/04/28 08:14:21;;;;;;;3.58;2.40;;;12.70;94.60;;;;;;5028363;28;20029;-48
2023/04/28 08:16:47;;;;;;;3.15;1.95;;;12.70;95.30;;;;;;5028035;28;20025;-48
2023/04/28 08:19:13;;;;;;;4.50;2.35;;;12.80;95.70;;;;;;5028267;28;20035;-50
2023/04/28 08:21:38;;;;;;;4.25;2.30;;;12.90;95.80;;;;;;5027977;28;20053;-48
2023/04/28 08:24:04;;;;;;;2.08;1.88;;;13.10;96.10;;;;;;5028568;28;20037;-49
2023/04/28 08:26:30;;;;;;;2.25;2.05;;;13.20;96.40;;;;;;5027359;28;20073;-49
2023/04/28 08:28:55;;;;;;;2.28;2.08;;;13.30;94.20;;;;;;5028365;28;20108;-51
2023/04/28 08:31:21;;;;;;;3.17;1.83;;;13.30;93.60;;;;;;5027103;28;20033;-51
2023/04/28 08:33:50;;;;;;;3.78;2.20;;;13.40;93.70;;;;;;5009913;28;20402;-49
2023/04/28 08:36:16;;;;;;;3.72;2.15;;;13.50;92.70;;;;;;5027466;28;20068;-50
2023/04/28 08:38:43;;;;;;;2.40;1.95;;;13.40;92.30;;;;;;5010189;28;20025;-48
2023/04/28 08:41:10;;;;;;;4.53;2.47;;;13.40;93.00;;;;;;5027789;28;20590;-51
2023/04/28 08:43:36;;;;;;;4.45;2.55;;;13.40;92.80;;;;;;5009828;28;20025;-49
2023/04/28 08:46:05;;;;;;;3.58;2.33;;;13.30;90.90;;;;;;5027638;28;20029;-48
2023/04/28 08:48:40;;;;;;;4.68;1.95;;;13.40;93.50;;;;;;5027761;28;20392;-50
2023/04/28 08:51:07;;;;;;;2.97;2.60;;;13.40;92.90;;;;;;5027638;28;20026;-48
2023/04/28 08:53:36;;;;;;;5.68;2.40;;;13.50;91.60;;;;;;5027381;28;20021;-49
2023/04/28 08:56:05;;;;;;;4.90;2.33;;;13.40;91.20;;;;;;5027443;28;20018;-50
2023/04/28 08:58:31;;;;;;;5.78;2.88;;;13.40;91.30;;;;;;5027383;28;20511;-52
2023/04/28 09:00:56;;;;;;;6.13;3.10;;;13.40;91.80;;;;;;5026877;28;20163;-48
2023/04/28 09:03:22;;;;;;;4.55;3.15;;;13.30;90.40;;;;;;5027763;28;20026;-48
2023/04/28 09:05:48;;;;;;;4.15;2.70;;;13.20;91.40;;;;;;5027487;28;20387;-52
2023/04/28 09:08:13;;;;;;;3.35;2.60;;;13.10;90.50;;;;;;5027225;28;20046;-53
2023/04/28 09:10:39;;;;;;;6.13;3.15;;;13.10;90.60;;;;;;5027291;28;20036;-52
2023/04/28 09:13:06;;;;;;;4.60;2.80;;;13.20;92.20;;;;;;5027438;28;20438;-50
2023/04/28 09:15:33;;;;;;;4.13;2.60;;;13.30;90.60;;;;;;5026806;28;20526;-53
2023/04/28 09:18:05;;;;;;;4.40;2.60;;;13.30;91.20;;;;;;5026493;28;20096;-50
2023/04/28 09:20:32;;;;;;;2.80;2.60;;;13.40;90.40;;;;;;5026089;28;20083;-48
2023/04/28 09:23:14;;;;;;;4.43;3.00;;;13.40;91.60;;;;;;5027067;28;20105;-52
2023/04/28 09:25:54;;;;;;;3.72;2.00;;;13.60;91.00;;;;;;5027126;28;20053;-49
2023/04/28 09:28:20;;;;;;;5.05;2.58;;;13.60;91.50;;;;;;5026905;28;20040;-49
2023/04/28 09:30:46;;;;;;;4.30;2.95;;;13.60;90.60;;;;;;5025978;28;20485;-49
2023/04/28 09:33:12;;;;;;;4.82;2.75;;;13.70;90.40;;;;;;5024999;28;20025;-49
2023/04/28 09:35:39;;;;;;;3.65;2.50;;;13.80;88.70;;;;;;5026841;28;20121;-48
2023/04/28 09:38:05;;;;;;;3.65;2.80;;;13.90;89.50;;;;;;5025633;28;20096;-49
2023/04/28 09:40:31;;;;;;;3.97;3.20;;;14.10;90.20;;;;;;5027211;28;20492;-50
2023/04/28 09:42:56;;;;;;;5.00;2.85;;;14.30;90.20;;;;;;5026802;28;20056;-50
2023/04/28 09:45:23;;;;;;;3.53;2.80;;;14.60;90.40;;;;;;5026387;28;20497;-51
2023/04/28 09:47:49;;;;;;;5.38;3.20;;;14.70;87.30;;;;;;5026679;28;20048;-47
2023/04/28 09:50:16;;;;;;;3.35;3.05;;;14.80;86.70;;;;;;5026190;28;20049;-49
2023/04/28 09:52:47;;;;;;;4.18;2.58;;;14.80;89.00;;;;;;5025305;28;20053;-48
2023/04/28 09:55:14;;;;;;;7.03;3.33;;;14.80;89.70;;;;;;5026775;28;20049;-51
2023/04/28 09:57:41;;;;;;;3.85;2.50;;;14.70;87.30;;;;;;5008905;28;20029;-50
2023/04/28 10:00:08;;;;;;;3.85;2.58;;;14.80;90.40;;;;;;5025867;28;20030;-50
2023/04/28 10:02:35;;;;;;;5.80;3.10;;;14.80;89.20;;;;;;5026642;28;20105;-50
2023/04/28 10:05:02;;;;;;;3.70;2.75;;;14.80;89.80;;;;;;5026759;28;20113;-49
2023/04/28 10:07:29;;;;;;;3.22;2.60;;;14.70;89.20;;;;;;5025818;28;20042;-49
2023/04/28 10:09:55;;;;;;;4.82;2.60;;;14.80;90.30;;;;;;5027076;28;20022;-49
2023/04/28 10:12:23;;;;;;;5.55;3.70;;;14.80;90.70;;;;;;5026866;28;20579;-49
2023/04/28 10:14:53;;;;;;;3.28;2.97;;;14.80;87.10;;;;;;5026145;28;20053;-51
2023/04/28 10:17:20;;;;;;;4.80;3.50;;;14.80;87.50;;;;;;5026329;28;20029;-48
2023/04/28 10:19:50;;;;;;;3.13;2.42;;;14.70;89.10;;;;;;5025136;28;20477;-48
2023/04/28 10:22:34;;;;;;;4.63;3.17;;;14.70;90.20;;;;;;5026696;28;20010;-49
2023/04/28 10:25:11;;;;;;;5.53;3.50;;;14.70;90.00;;;;;;5025977;28;20228;-48
2023/04/28 10:27:40;;;;;;;4.88;3.20;;;14.60;86.40;;;;;;5027347;28;20438;-48
2023/04/28 10:30:20;;;;;;;7.75;3.58;;;14.50;89.40;;;;;;5029275;28;20083;-50
2023/04/28 10:32:46;;;;;;;5.22;3.00;;;14.50;87.40;;;;;;5029245;28;20018;-47
2023/04/28 10:35:41;;;;;;;2.90;2.63;;;14.50;88.10;;;;;;5030060;28;20056;-48
2023/04/28 10:38:13;;;;;;;3.42;2.78;;;14.40;89.40;;;;;;5029692;28;20033;-49
2023/04/28 10:40:46;;;;;;;3.70;2.90;;;14.30;87.80;;;;;;5029957;28;20495;-51
2023/04/28 10:43:33;;;;;;;6.32;3.33;;;14.30;87.90;;;;;;5029734;28;20087;-50
2023/04/28 10:46:04;;;;;;;7.93;3.40;;;14.30;89.20;;;;;;5029701;28;20032;-52
2023/04/28 10:48:33;;;;;;;3.40;2.60;;;14.40;89.60;;;;;;5028991;28;20101;-48
2023/04/28 10:51:11;;;;;;;7.43;3.88;;;14.30;87.70;;;;;;5029763;28;20101;-52
2023/04/28 10:53:43;;;;;;;7.68;3.35;;;14.40;90.60;;;;;;5027912;28;20113;-48
2023/04/28 10:56:25;;;;;;;4.03;3.15;;;14.50;88.80;;;;;;5029105;28;20483;-49
2023/04/28 10:58:55;;;;;;;4.40;2.95;;;14.60;87.80;;;;;;5029284;28;20339;-48
2023/04/28 11:01:20;;;;;;;6.40;2.95;;;14.50;86.60;;;;;;5028668;28;20045;-51
2023/04/28 11:03:46;;;;;;;5.78;3.00;;;14.50;86.40;;;;;;5029217;28;20017;-50
2023/04/28 11:06:27;;;;;;;4.90;3.35;;;14.50;86.80;;;;;;5029349;28;20030;-50
2023/04/28 11:08:59;;;;;;;6.00;3.05;;;14.50;89.40;;;;;;5029436;28;20577;-49
2023/04/28 11:11:26;;;;;;;5.50;3.33;;;14.50;86.60;;;;;;5011194;28;20488;-49
2023/04/28 11:14:21;;;;;;;4.38;3.05;;;14.60;90.40;;;;;;5029546;28;20123;-52
2023/04/28 11:16:55;;;;;;;5.80;3.42;;;14.70;86.30;;;;;;5020503;28;20115;-54
2023/04/28 11:19:23;;;;;;;3.88;3.25;;;14.80;88.10;;;;;;5028954;28;20507;-49
2023/04/28 11:21:49;;;;;;;6.30;3.88;;;15.00;88.20;;;;;;5027968;28;20057;-48
2023/04/28 11:24:16;;;;;;;3.85;3.13;;;15.00;85.00;;;;;;5029447;28;20040;-50
2023/04/28 11:26:43;;;;;;;4.40;2.97;;;15.00;85.90;;;;;;5028582;28;20027;-51
2023/04/28 11:29:10;;;;;;;5.50;3.20;;;15.00;84.90;;;;;;5028768;28;20124;-53
2023/04/28 11:31:37;;;;;;;4.43;3.17;;;15.00;87.30;;;;;;5026980;28;20030;-52
2023/04/28 11:34:06;;;;;;;4.15;2.63;;;15.10;87.20;;;;;;5028404;28;20476;-50
2023/04/28 11:36:34;;;;;;;4.70;3.17;;;15.10;86.00;;;;;;5027497;28;20029;-50
2023/04/28 11:39:03;;;;;;;5.55;3.10;;;15.10;85.40;;;;;;5028766;28;20022;-49
2023/04/28 11:41:30;;;;;;;7.53;3.60;;;15.10;87.70;;;;;;5028628;28;20030;-50
2023/04/28 11:43:55;;;;;;;3.95;3.00;;;15.10;87.30;;;;;;5028716;28;20475;-50
2023/04/28 11:46:23;;;;;;;4.47;3.15;;;15.20;85.70;;;;;;5028495;28;20041;-52
2023/04/28 11:49:03;;;;;;;9.35;4.10;;;15.40;86.50;;;;;;5028424;28;20047;-50
2023/04/28 11:51:32;;;;;;;8.50;3.10;;;15.40;87.40;;;;;;5027962;28;20021;-53
2023/04/28 11:53:58;;;;;;;5.65;3.08;;;15.40;84.80;;;;;;5028239;28;20483;-53
2023/04/28 11:56:25;;;;;;;6.28;3.63;;;15.40;85.50;;;;;;5028195;28;20033;-50
2023/04/28 11:59:06;;;;;;;6.75;3.10;;;15.30;86.60;;;;;;5029090;28;20048;-53
2023/04/28 12:01:33;;;;;;;4.82;3.13;;;15.20;86.00;;;;;;5028245;28;20092;-48
2023/04/28 12:03:59;;;;;;;4.97;3.08;;;15.20;86.80;;;;;;5028306;28;20037;-51
2023/04/28 12:06:24;;;;;;;4.30;2.65;;;15.20;84.50;;;;;;5027593;28;20025;-49
2023/04/28 12:08:51;;;;;;;5.32;3.05;;;15.10;85.50;;;;;;5028012;28;20582;-49
2023/04/28 12:11:17;;;;;;;4.45;3.10;;;15.10;86.60;;;;;;5028349;28;20041;-53
2023/04/28 12:14:01;;;;;;;6.25;2.92;;;15.10;87.00;;;;;;5027857;28;20018;-48
2023/04/28 12:16:38;;;;;;;3.58;3.10;;;15.20;86.00;;;;;;5027499;28;20041;-49
2023/04/28 12:19:06;;;;;;;4.78;3.35;;;15.20;86.00;;;;;;5010338;28;20402;-50
2023/04/28 12:21:32;;;;;;;2.88;2.63;;;15.20;87.50;;;;;;5025407;28;20075;-51
2023/04/28 12:23:58;;;;;;;4.15;2.90;;;15.30;87.50;;;;;;5027357;28;20033;-50
2023/04/28 12:26:24;;;;;;;8.23;3.55;;;15.20;86.70;;;;;;5027170;28;20131;-55
2023/04/28 12:28:50;;;;;;;5.63;3.38;;;15.20;85.80;;;;;;5027509;28;20396;-52
2023/04/28 12:31:15;;;;;;;4.68;3.53;;;15.30;86.00;;;;;;5027388;28;20044;-49
2023/04/28 12:33:41;;;;;;;4.50;3.10;;;15.30;86.70;;;;;;5027521;28;20548;-51
2023/04/28 12:36:06;;;;;;;5.20;3.17;;;15.30;86.80;;;;;;5025669;28;20030;-51
2023/04/28 12:38:32;;;;;;;3.95;2.67;;;15.30;87.70;;;;;;5051027;23;20033;-79
2023/04/28 12:40:58;;;;;;;6.88;3.70;;;15.40;88.80;;;;;;5068580;28;20046;-78
2023/04/28 12:43:25;;;;;;;5.60;3.78;;;15.40;86.00;;;;;;5068153;28;20028;-80
2023/04/28 12:45:52;;;;;;;4.65;3.72;;;15.30;86.90;;;;;;5068976;28;20104;-78